Pagina principale
METAR-TAF:

METAR-TAF

Aeroporti :

Paganella, Italia

latitudine: 46-09N, longitudine: 011-02E, altezza: 2125 m

Osservazione

Il bollettino è stato emesso 1 ora e 7 minuti fa, alle 15:55 UTC
Vento 10 kt da sud-ovest
Temperature 15°C
Umidità 82%
Pressione 1026 hPa
Visibilità 10 km o più
Poco nuvoloso ad un'altezza di 100 ft

METAR: LIVP 191555Z 22010KT 9999 FEW001 15/12 Q1026 RMK BKN MON CLD SCT VAL S FOSCHIA SKC SUP VIS MIN 9999

Ora: 19:02 (17:02 UTC)


TAF: mancante

Osservazioni e previsioni meteorologiche di più di 4000 aeroporti (messaggi METAR e TAF).

Le stazioni disponibili sono rappresentate dai dischi gialli e rossi sulla carta.

Puntare il mouse per vedere il nome della stazione.

Clicca sopra per visualizzare le osservazioni e previsioni meteorologiche.

Per cambiare la mappa : fare clic sui pulsanti verdi con una croce nera per ingrandire, il pulsante verde con un trattino per diminuire, o sulla freccia verde per le mappe adiacenti.


METAR-TAF: